sensor_id;sensor_type;location;lat;lon;timestamp;pressure;altitude;pressure_sealevel;temperature;humidity
64025;BME280;50266;57.446;26.936;2023-04-20T00:00:00;100749.23;;;4.42;100.0
64025;BME280;50266;57.446;26.936;2023-04-20T00:01:00;100746.91;;;4.52;100.0
64025;BME280;50266;57.446;26.936;2023-04-20T00:02:00;100744.11;;;4.49;100.0
64025;BME280;50266;57.446;26.936;2023-04-20T00:03:00;100746.67;;;4.55;100.0
64025;BME280;50266;57.446;26.936;2023-04-20T00:04:00;100745.3;;;4.55;100.0
64025;BME280;50266;57.446;26.936;2023-04-20T00:05:00;100744.01;;;4.56;100.0
64025;BME280;50266;57.446;26.936;2023-04-20T00:06:00;100739.77;;;4.57;100.0
64025;BME280;50266;57.446;26.936;2023-04-20T00:07:00;100741.82;;;4.48;100.0
64025;BME280;50266;57.446;26.936;2023-04-20T00:08:00;100744.16;;;4.35;100.0
64025;BME280;50266;57.446;26.936;2023-04-20T00:09:00;100750.81;;;4.4;100.0
64025;BME280;50266;57.446;26.936;2023-04-20T00:10:00;100741.66;;;4.48;100.0
64025;BME280;50266;57.446;26.936;2023-04-20T00:11:00;100747.55;;;4.44;100.0
64025;BME280;50266;57.446;26.936;2023-04-20T00:12:00;100741.34;;;4.5;100.0
64025;BME280;50266;57.446;26.936;2023-04-20T00:13:00;100742.56;;;4.55;100.0
64025;BME280;50266;57.446;26.936;2023-04-20T00:14:00;100742.89;;;4.52;100.0
64025;BME280;50266;57.446;26.936;2023-04-20T00:15:00;100743.28;;;4.49;100.0
64025;BME280;50266;57.446;26.936;2023-04-20T00:16:00;100744.41;;;4.47;100.0
64025;BME280;50266;57.446;26.936;2023-04-20T00:17:00;100740.04;;;4.49;100.0
64025;BME280;50266;57.446;26.936;2023-04-20T00:18:00;100741.41;;;4.52;100.0
64025;BME280;50266;57.446;26.936;2023-04-20T00:19:00;100744.77;;;4.52;100.0
64025;BME280;50266;57.446;26.936;2023-04-20T00:20:00;100747.52;;;4.54;100.0
64025;BME280;50266;57.446;26.936;2023-04-20T00:21:00;100741.03;;;4.49;100.0
64025;BME280;50266;57.446;26.936;2023-04-20T00:22:00;100745.38;;;4.43;100.0
64025;BME280;50266;57.446;26.936;2023-04-20T00:23:00;100739.8;;;4.5;100.0
64025;BME280;50266;57.446;26.936;2023-04-20T00:24:00;100742.96;;;4.46;100.0
64025;BME280;50266;57.446;26.936;2023-04-20T00:25:00;100742.72;;;4.44;100.0
64025;BME280;50266;57.446;26.936;2023-04-20T00:26:00;100743.86;;;4.33;100.0
64025;BME280;50266;57.446;26.936;2023-04-20T00:27:00;100742.98;;;4.36;100.0
64025;BME280;50266;57.446;26.936;2023-04-20T00:28:00;100739.17;;;4.41;100.0
64025;BME280;50266;57.446;26.936;2023-04-20T00:29:00;100739.91;;;4.33;100.0
64025;BME280;50266;57.446;26.936;2023-04-20T00:30:00;100743.26;;;4.3;100.0
64025;BME280;50266;57.446;26.936;2023-04-20T00:31:00;100743.58;;;4.28;100.0
64025;BME280;50266;57.446;26.936;2023-04-20T00:32:00;100744.91;;;4.35;100.0
64025;BME280;50266;57.446;26.936;2023-04-20T00:33:01;100746.05;;;4.25;100.0
64025;BME280;50266;57.446;26.936;2023-04-20T00:34:00;100748.17;;;4.17;100.0
64025;BME280;50266;57.446;26.936;2023-04-20T00:35:00;100747.91;;;4.16;100.0
64025;BME280;50266;57.446;26.936;2023-04-20T00:36:00;100743.93;;;4.14;100.0
64025;BME280;50266;57.446;26.936;2023-04-20T00:37:00;100745.14;;;4.18;100.0
64025;BME280;50266;57.446;26.936;2023-04-20T00:38:00;100747.34;;;4.14;100.0
64025;BME280;50266;57.446;26.936;2023-04-20T00:39:00;100745.67;;;4.15;100.0
64025;BME280;50266;57.446;26.936;2023-04-20T00:40:00;100744.3;;;4.09;100.0
64025;BME280;50266;57.446;26.936;2023-04-20T00:41:00;100743.12;;;4.13;100.0
64025;BME280;50266;57.446;26.936;2023-04-20T00:42:07;100741.78;;;4.07;100.0
64025;BME280;50266;57.446;26.936;2023-04-20T00:43:09;100743.99;;;4.08;100.0
64025;BME280;50266;57.446;26.936;2023-04-20T00:44:06;100742.85;;;4.02;100.0
64025;BME280;50266;57.446;26.936;2023-04-20T00:45:06;100741.95;;;3.97;100.0
64025;BME280;50266;57.446;26.936;2023-04-20T00:46:06;100741.58;;;4.0;100.0
64025;BME280;50266;57.446;26.936;2023-04-20T00:47:06;100747.95;;;3.98;100.0
64025;BME280;50266;57.446;26.936;2023-04-20T00:48:06;100745.25;;;3.97;100.0
64025;BME280;50266;57.446;26.936;2023-04-20T00:49:06;100742.32;;;3.91;100.0
64025;BME280;50266;57.446;26.936;2023-04-20T00:50:07;100745.78;;;3.88;100.0
64025;BME280;50266;57.446;26.936;2023-04-20T00:51:06;100749.36;;;3.81;100.0
64025;BME280;50266;57.446;26.936;2023-04-20T00:52:06;100749.11;;;3.69;100.0
64025;BME280;50266;57.446;26.936;2023-04-20T00:53:06;100748.06;;;3.72;100.0
64025;BME280;50266;57.446;26.936;2023-04-20T00:54:06;100748.52;;;3.79;100.0
64025;BME280;50266;57.446;26.936;2023-04-20T00:55:07;100747.43;;;3.81;100.0
64025;BME280;50266;57.446;26.936;2023-04-20T00:56:06;100748.5;;;3.72;100.0
64025;BME280;50266;57.446;26.936;2023-04-20T00:57:06;100746.47;;;3.63;100.0
64025;BME280;50266;57.446;26.936;2023-04-20T00:58:06;100747.81;;;3.61;100.0
64025;BME280;50266;57.446;26.936;2023-04-20T00:59:06;100746.53;;;3.69;100.0
64025;BME280;50266;57.446;26.936;2023-04-20T01:00:07;100750.03;;;3.72;100.0
64025;BME280;50266;57.446;26.936;2023-04-20T01:01:06;100745.66;;;3.69;100.0
64025;BME280;50266;57.446;26.936;2023-04-20T01:02:06;100744.11;;;3.7;100.0
64025;BME280;50266;57.446;26.936;2023-04-20T01:03:07;100741.54;;;3.63;100.0
64025;BME280;50266;57.446;26.936;2023-04-20T01:04:07;100743.48;;;3.71;100.0
64025;BME280;50266;57.446;26.936;2023-04-20T01:05:07;100740.02;;;3.69;100.0
64025;BME280;50266;57.446;26.936;2023-04-20T01:06:06;100744.08;;;3.76;100.0
64025;BME280;50266;57.446;26.936;2023-04-20T01:07:06;100743.37;;;3.82;100.0
64025;BME280;50266;57.446;26.936;2023-04-20T01:08:06;100738.59;;;3.82;100.0
64025;BME280;50266;57.446;26.936;2023-04-20T01:09:07;100740.59;;;3.8;100.0
64025;BME280;50266;57.446;26.936;2023-04-20T01:10:07;100737.12;;;3.71;100.0
64025;BME280;50266;57.446;26.936;2023-04-20T01:11:07;100735.09;;;3.88;100.0
64025;BME280;50266;57.446;26.936;2023-04-20T01:12:08;100733.88;;;3.94;100.0
64025;BME280;50266;57.446;26.936;2023-04-20T01:13:07;100734.9;;;3.84;100.0
64025;BME280;50266;57.446;26.936;2023-04-20T01:14:07;100730.98;;;3.78;100.0
64025;BME280;50266;57.446;26.936;2023-04-20T01:15:07;100731.72;;;3.87;100.0
64025;BME280;50266;57.446;26.936;2023-04-20T01:16:07;100728.37;;;3.81;100.0
64025;BME280;50266;57.446;26.936;2023-04-20T01:17:07;100728.33;;;3.8;100.0
64025;BME280;50266;57.446;26.936;2023-04-20T01:18:07;100732.14;;;3.81;100.0
64025;BME280;50266;57.446;26.936;2023-04-20T01:19:07;100730.33;;;3.76;100.0
64025;BME280;50266;57.446;26.936;2023-04-20T01:20:07;100725.04;;;3.86;100.0
64025;BME280;50266;57.446;26.936;2023-04-20T01:21:07;100724.91;;;3.81;100.0
64025;BME280;50266;57.446;26.936;2023-04-20T01:22:07;100730.47;;;3.89;100.0
64025;BME280;50266;57.446;26.936;2023-04-20T01:23:07;100729.37;;;3.92;100.0
64025;BME280;50266;57.446;26.936;2023-04-20T01:24:07;100727.41;;;3.85;100.0
64025;BME280;50266;57.446;26.936;2023-04-20T01:25:07;100728.17;;;3.92;100.0
64025;BME280;50266;57.446;26.936;2023-04-20T01:26:07;100724.52;;;3.97;100.0
64025;BME280;50266;57.446;26.936;2023-04-20T01:27:07;100729.34;;;4.01;100.0
64025;BME280;50266;57.446;26.936;2023-04-20T01:28:07;100726.14;;;4.02;100.0
64025;BME280;50266;57.446;26.936;2023-04-20T01:29:07;100729.6;;;3.98;100.0
64025;BME280;50266;57.446;26.936;2023-04-20T01:30:07;100725.52;;;3.9;100.0
64025;BME280;50266;57.446;26.936;2023-04-20T01:31:08;100723.72;;;3.97;100.0
64025;BME280;50266;57.446;26.936;2023-04-20T01:32:07;100721.91;;;3.9;100.0
64025;BME280;50266;57.446;26.936;2023-04-20T01:33:07;100723.78;;;3.89;100.0
64025;BME280;50266;57.446;26.936;2023-04-20T01:34:07;100723.25;;;3.88;100.0
64025;BME280;50266;57.446;26.936;2023-04-20T01:35:07;100719.3;;;3.88;100.0
64025;BME280;50266;57.446;26.936;2023-04-20T01:36:07;100720.52;;;3.85;100.0
64025;BME280;50266;57.446;26.936;2023-04-20T01:37:07;100725.1;;;3.77;100.0
64025;BME280;50266;57.446;26.936;2023-04-20T01:38:07;100718.77;;;3.82;100.0
64025;BME280;50266;57.446;26.936;2023-04-20T01:39:07;100721.88;;;3.82;100.0
64025;BME280;50266;57.446;26.936;2023-04-20T01:40:08;100725.17;;;3.72;100.0
64025;BME280;50266;57.446;26.936;2023-04-20T01:41:07;100716.77;;;3.86;100.0
64025;BME280;50266;57.446;26.936;2023-04-20T01:42:07;100717.03;;;3.8;100.0
64025;BME280;50266;57.446;26.936;2023-04-20T01:43:07;100719.2;;;3.79;100.0
64025;BME280;50266;57.446;26.936;2023-04-20T01:44:07;100717.44;;;3.77;100.0
64025;BME280;50266;57.446;26.936;2023-04-20T01:45:08;100718.82;;;3.72;100.0
64025;BME280;50266;57.446;26.936;2023-04-20T01:46:07;100720.84;;;3.66;100.0
64025;BME280;50266;57.446;26.936;2023-04-20T01:47:07;100719.39;;;3.75;100.0
64025;BME280;50266;57.446;26.936;2023-04-20T01:48:07;100720.0;;;3.8;100.0
64025;BME280;50266;57.446;26.936;2023-04-20T01:49:08;100719.05;;;3.78;100.0
64025;BME280;50266;57.446;26.936;2023-04-20T01:50:08;100717.41;;;3.81;100.0
64025;BME280;50266;57.446;26.936;2023-04-20T01:51:07;100720.17;;;3.98;100.0
64025;BME280;50266;57.446;26.936;2023-04-20T01:52:08;100723.31;;;3.79;100.0
64025;BME280;50266;57.446;26.936;2023-04-20T01:53:07;100723.58;;;3.79;100.0
64025;BME280;50266;57.446;26.936;2023-04-20T01:54:07;100719.41;;;3.73;100.0
64025;BME280;50266;57.446;26.936;2023-04-20T01:55:08;100719.88;;;3.78;100.0
64025;BME280;50266;57.446;26.936;2023-04-20T01:56:07;100720.63;;;3.76;100.0
64025;BME280;50266;57.446;26.936;2023-04-20T01:57:07;100722.35;;;3.73;100.0
64025;BME280;50266;57.446;26.936;2023-04-20T01:58:07;100718.82;;;3.82;100.0
64025;BME280;50266;57.446;26.936;2023-04-20T01:59:07;100720.66;;;3.89;100.0
64025;BME280;50266;57.446;26.936;2023-04-20T02:00:08;100719.48;;;3.82;100.0
64025;BME280;50266;57.446;26.936;2023-04-20T02:01:07;100723.25;;;3.82;100.0
64025;BME280;50266;57.446;26.936;2023-04-20T02:02:07;100720.68;;;3.79;100.0
64025;BME280;50266;57.446;26.936;2023-04-20T02:03:07;100720.73;;;3.82;100.0
64025;BME280;50266;57.446;26.936;2023-04-20T02:04:07;100718.88;;;3.79;100.0
64025;BME280;50266;57.446;26.936;2023-04-20T02:05:08;100718.87;;;3.85;100.0
64025;BME280;50266;57.446;26.936;2023-04-20T02:06:07;100718.88;;;3.79;100.0
64025;BME280;50266;57.446;26.936;2023-04-20T02:07:07;100721.16;;;3.77;100.0
64025;BME280;50266;57.446;26.936;2023-04-20T02:08:08;100717.19;;;3.78;100.0
64025;BME280;50266;57.446;26.936;2023-04-20T02:09:08;100720.26;;;3.74;100.0
64025;BME280;50266;57.446;26.936;2023-04-20T02:10:08;100721.03;;;3.75;100.0
64025;BME280;50266;57.446;26.936;2023-04-20T02:11:08;100719.25;;;3.72;100.0
64025;BME280;50266;57.446;26.936;2023-04-20T02:12:08;100721.39;;;3.82;100.0
64025;BME280;50266;57.446;26.936;2023-04-20T02:13:08;100718.53;;;3.89;100.0
64025;BME280;50266;57.446;26.936;2023-04-20T02:14:08;100721.48;;;3.89;100.0
64025;BME280;50266;57.446;26.936;2023-04-20T02:15:08;100719.13;;;3.83;100.0
64025;BME280;50266;57.446;26.936;2023-04-20T02:16:08;100723.17;;;3.8;100.0
64025;BME280;50266;57.446;26.936;2023-04-20T02:17:08;100713.64;;;3.8;100.0
64025;BME280;50266;57.446;26.936;2023-04-20T02:18:08;100718.67;;;3.75;100.0
64025;BME280;50266;57.446;26.936;2023-04-20T02:19:08;100718.14;;;3.67;100.0
64025;BME280;50266;57.446;26.936;2023-04-20T02:20:08;100719.85;;;3.72;100.0
64025;BME280;50266;57.446;26.936;2023-04-20T02:21:08;100719.41;;;3.73;100.0
64025;BME280;50266;57.446;26.936;2023-04-20T02:22:08;100714.98;;;3.76;100.0
64025;BME280;50266;57.446;26.936;2023-04-20T02:23:08;100713.55;;;3.7;100.0
64025;BME280;50266;57.446;26.936;2023-04-20T02:24:08;100713.1;;;3.64;100.0
64025;BME280;50266;57.446;26.936;2023-04-20T02:25:08;100710.99;;;3.62;100.0
64025;BME280;50266;57.446;26.936;2023-04-20T02:26:08;100710.78;;;3.55;100.0
64025;BME280;50266;57.446;26.936;2023-04-20T02:27:08;100708.75;;;3.52;100.0
64025;BME280;50266;57.446;26.936;2023-04-20T02:28:08;100711.19;;;3.53;100.0
64025;BME280;50266;57.446;26.936;2023-04-20T02:29:08;100706.06;;;3.52;100.0
64025;BME280;50266;57.446;26.936;2023-04-20T02:30:08;100704.77;;;3.51;100.0
64025;BME280;50266;57.446;26.936;2023-04-20T02:31:08;100706.61;;;3.52;100.0
64025;BME280;50266;57.446;26.936;2023-04-20T02:32:08;100708.7;;;3.48;100.0
64025;BME280;50266;57.446;26.936;2023-04-20T02:33:08;100710.88;;;3.56;100.0
64025;BME280;50266;57.446;26.936;2023-04-20T02:34:08;100705.68;;;3.65;100.0
64025;BME280;50266;57.446;26.936;2023-04-20T02:35:08;100711.62;;;3.6;100.0
64025;BME280;50266;57.446;26.936;2023-04-20T02:36:08;100707.36;;;3.67;100.0
64025;BME280;50266;57.446;26.936;2023-04-20T02:37:08;100705.08;;;3.62;100.0
64025;BME280;50266;57.446;26.936;2023-04-20T02:38:08;100704.57;;;3.63;100.0
64025;BME280;50266;57.446;26.936;2023-04-20T02:39:08;100708.3;;;3.6;100.0
64025;BME280;50266;57.446;26.936;2023-04-20T02:40:08;100706.48;;;3.57;100.0
64025;BME280;50266;57.446;26.936;2023-04-20T02:41:08;100703.28;;;3.51;100.0
64025;BME280;50266;57.446;26.936;2023-04-20T02:42:08;100704.08;;;3.49;100.0
64025;BME280;50266;57.446;26.936;2023-04-20T02:43:08;100703.03;;;3.47;100.0
64025;BME280;50266;57.446;26.936;2023-04-20T02:44:08;100703.3;;;3.34;100.0
64025;BME280;50266;57.446;26.936;2023-04-20T02:45:09;100702.43;;;3.34;100.0
64025;BME280;50266;57.446;26.936;2023-04-20T02:46:08;100702.95;;;3.35;100.0
64025;BME280;50266;57.446;26.936;2023-04-20T02:47:08;100700.96;;;3.36;100.0
64025;BME280;50266;57.446;26.936;2023-04-20T02:48:08;100698.06;;;3.31;100.0
64025;BME280;50266;57.446;26.936;2023-04-20T02:49:08;100701.55;;;3.44;100.0
64025;BME280;50266;57.446;26.936;2023-04-20T02:50:09;100703.95;;;3.47;100.0
64025;BME280;50266;57.446;26.936;2023-04-20T02:51:08;100703.32;;;3.49;100.0
64025;BME280;50266;57.446;26.936;2023-04-20T02:52:08;100702.99;;;3.42;100.0
64025;BME280;50266;57.446;26.936;2023-04-20T02:53:08;100702.02;;;3.45;100.0
64025;BME280;50266;57.446;26.936;2023-04-20T02:54:08;100705.51;;;3.53;100.0
64025;BME280;50266;57.446;26.936;2023-04-20T02:55:08;100705.28;;;3.43;100.0
64025;BME280;50266;57.446;26.936;2023-04-20T02:56:08;100703.89;;;3.44;100.0
64025;BME280;50266;57.446;26.936;2023-04-20T02:57:08;100701.12;;;3.46;100.0
64025;BME280;50266;57.446;26.936;2023-04-20T02:58:08;100703.52;;;3.44;100.0
64025;BME280;50266;57.446;26.936;2023-04-20T02:59:08;100707.75;;;3.45;100.0
64025;BME280;50266;57.446;26.936;2023-04-20T03:00:09;100702.11;;;3.43;100.0
64025;BME280;50266;57.446;26.936;2023-04-20T03:01:08;100702.77;;;3.4;100.0
64025;BME280;50266;57.446;26.936;2023-04-20T03:02:08;100706.62;;;3.42;100.0
64025;BME280;50266;57.446;26.936;2023-04-20T03:03:08;100705.19;;;3.45;100.0
64025;BME280;50266;57.446;26.936;2023-04-20T03:04:08;100701.54;;;3.41;100.0
64025;BME280;50266;57.446;26.936;2023-04-20T03:05:08;100708.61;;;3.4;100.0
64025;BME280;50266;57.446;26.936;2023-04-20T03:06:09;100701.02;;;3.46;100.0
64025;BME280;50266;57.446;26.936;2023-04-20T03:07:10;100700.89;;;3.44;100.0
64025;BME280;50266;57.446;26.936;2023-04-20T03:08:09;100703.03;;;3.4;100.0
64025;BME280;50266;57.446;26.936;2023-04-20T03:09:09;100700.64;;;3.42;100.0
64025;BME280;50266;57.446;26.936;2023-04-20T03:10:09;100701.66;;;3.4;100.0
64025;BME280;50266;57.446;26.936;2023-04-20T03:11:09;100704.28;;;3.4;100.0
64025;BME280;50266;57.446;26.936;2023-04-20T03:12:09;100705.91;;;3.35;100.0
64025;BME280;50266;57.446;26.936;2023-04-20T03:13:09;100705.55;;;3.32;100.0
64025;BME280;50266;57.446;26.936;2023-04-20T03:14:09;100705.52;;;3.35;100.0
64025;BME280;50266;57.446;26.936;2023-04-20T03:15:09;100703.1;;;3.39;100.0
64025;BME280;50266;57.446;26.936;2023-04-20T03:16:09;100704.12;;;3.37;100.0
64025;BME280;50266;57.446;26.936;2023-04-20T03:17:09;100702.72;;;3.39;100.0
64025;BME280;50266;57.446;26.936;2023-04-20T03:18:09;100705.23;;;3.4;100.0
64025;BME280;50266;57.446;26.936;2023-04-20T03:19:09;100702.48;;;3.37;100.0
64025;BME280;50266;57.446;26.936;2023-04-20T03:20:09;100710.27;;;3.39;100.0
64025;BME280;50266;57.446;26.936;2023-04-20T03:21:09;100706.2;;;3.43;100.0
64025;BME280;50266;57.446;26.936;2023-04-20T03:22:09;100702.97;;;3.4;100.0
64025;BME280;50266;57.446;26.936;2023-04-20T03:23:09;100701.19;;;3.45;100.0
64025;BME280;50266;57.446;26.936;2023-04-20T03:24:09;100706.36;;;3.41;100.0
64025;BME280;50266;57.446;26.936;2023-04-20T03:25:09;100705.3;;;3.35;100.0
64025;BME280;50266;57.446;26.936;2023-04-20T03:26:09;100703.91;;;3.37;100.0
64025;BME280;50266;57.446;26.936;2023-04-20T03:27:09;100698.72;;;3.46;100.0
64025;BME280;50266;57.446;26.936;2023-04-20T03:28:09;100699.45;;;3.48;100.0
64025;BME280;50266;57.446;26.936;2023-04-20T03:29:09;100699.53;;;3.46;100.0
64025;BME280;50266;57.446;26.936;2023-04-20T03:30:10;100699.56;;;3.51;100.0
64025;BME280;50266;57.446;26.936;2023-04-20T03:31:09;100699.7;;;3.42;100.0
64025;BME280;50266;57.446;26.936;2023-04-20T03:32:09;100699.23;;;3.44;100.0
64025;BME280;50266;57.446;26.936;2023-04-20T03:33:10;100700.91;;;3.46;100.0
64025;BME280;50266;57.446;26.936;2023-04-20T03:34:09;100700.7;;;3.52;100.0
64025;BME280;50266;57.446;26.936;2023-04-20T03:35:09;100697.94;;;3.53;100.0
64025;BME280;50266;57.446;26.936;2023-04-20T03:36:09;100698.84;;;3.48;100.0
64025;BME280;50266;57.446;26.936;2023-04-20T03:37:09;100703.72;;;3.41;100.0
64025;BME280;50266;57.446;26.936;2023-04-20T03:38:10;100703.86;;;3.49;100.0
64025;BME280;50266;57.446;26.936;2023-04-20T03:39:10;100704.41;;;3.46;100.0
64025;BME280;50266;57.446;26.936;2023-04-20T03:40:10;100702.89;;;3.49;100.0
64025;BME280;50266;57.446;26.936;2023-04-20T03:41:10;100703.78;;;3.55;100.0
64025;BME280;50266;57.446;26.936;2023-04-20T03:42:10;100699.65;;;3.49;100.0
64025;BME280;50266;57.446;26.936;2023-04-20T03:43:10;100702.41;;;3.44;100.0
64025;BME280;50266;57.446;26.936;2023-04-20T03:44:10;100699.33;;;3.45;100.0
64025;BME280;50266;57.446;26.936;2023-04-20T03:45:11;100698.05;;;3.47;100.0
64025;BME280;50266;57.446;26.936;2023-04-20T03:46:10;100700.34;;;3.53;100.0
64025;BME280;50266;57.446;26.936;2023-04-20T03:47:10;100702.66;;;3.52;100.0
64025;BME280;50266;57.446;26.936;2023-04-20T03:48:10;100704.11;;;3.55;100.0
64025;BME280;50266;57.446;26.936;2023-04-20T03:49:10;100702.38;;;3.6;100.0
64025;BME280;50266;57.446;26.936;2023-04-20T03:50:10;100701.47;;;3.59;100.0
64025;BME280;50266;57.446;26.936;2023-04-20T03:51:10;100703.38;;;3.62;100.0
64025;BME280;50266;57.446;26.936;2023-04-20T03:52:10;100699.77;;;3.68;100.0
64025;BME280;50266;57.446;26.936;2023-04-20T03:53:10;100699.07;;;3.7;100.0
64025;BME280;50266;57.446;26.936;2023-04-20T03:54:10;100700.03;;;3.72;100.0
64025;BME280;50266;57.446;26.936;2023-04-20T03:55:10;100697.3;;;3.72;100.0
64025;BME280;50266;57.446;26.936;2023-04-20T03:56:10;100699.12;;;3.78;100.0
64025;BME280;50266;57.446;26.936;2023-04-20T03:57:10;100702.89;;;3.81;100.0
64025;BME280;50266;57.446;26.936;2023-04-20T03:58:10;100697.91;;;3.84;100.0
64025;BME280;50266;57.446;26.936;2023-04-20T03:59:10;100700.02;;;3.85;100.0
64025;BME280;50266;57.446;26.936;2023-04-20T04:00:11;100697.45;;;3.85;100.0
64025;BME280;50266;57.446;26.936;2023-04-20T04:01:10;100696.38;;;3.84;100.0
64025;BME280;50266;57.446;26.936;2023-04-20T04:02:10;100699.59;;;3.82;100.0
64025;BME280;50266;57.446;26.936;2023-04-20T04:03:10;100695.72;;;3.81;100.0
64025;BME280;50266;57.446;26.936;2023-04-20T04:04:10;100701.91;;;3.81;100.0
64025;BME280;50266;57.446;26.936;2023-04-20T04:05:10;100701.27;;;3.8;100.0
64025;BME280;50266;57.446;26.936;2023-04-20T04:06:10;100704.86;;;3.88;100.0
64025;BME280;50266;57.446;26.936;2023-04-20T04:07:10;100705.59;;;3.89;100.0
64025;BME280;50266;57.446;26.936;2023-04-20T04:08:10;100699.89;;;3.89;100.0
64025;BME280;50266;57.446;26.936;2023-04-20T04:09:10;100704.55;;;3.92;100.0
64025;BME280;50266;57.446;26.936;2023-04-20T04:10:10;100698.33;;;3.95;100.0
64025;BME280;50266;57.446;26.936;2023-04-20T04:11:10;100701.55;;;4.01;100.0
64025;BME280;50266;57.446;26.936;2023-04-20T04:12:10;100700.15;;;4.05;100.0
64025;BME280;50266;57.446;26.936;2023-04-20T04:13:11;100701.41;;;4.03;100.0
64025;BME280;50266;57.446;26.936;2023-04-20T04:14:11;100698.59;;;4.06;100.0
64025;BME280;50266;57.446;26.936;2023-04-20T04:15:11;100704.59;;;4.05;100.0
64025;BME280;50266;57.446;26.936;2023-04-20T04:16:11;100703.89;;;4.05;100.0
64025;BME280;50266;57.446;26.936;2023-04-20T04:17:12;100704.69;;;4.08;100.0
64025;BME280;50266;57.446;26.936;2023-04-20T04:18:11;100703.72;;;4.1;100.0
64025;BME280;50266;57.446;26.936;2023-04-20T04:19:11;100703.89;;;4.1;100.0
64025;BME280;50266;57.446;26.936;2023-04-20T04:20:11;100705.99;;;4.15;100.0
64025;BME280;50266;57.446;26.936;2023-04-20T04:21:11;100707.2;;;4.16;100.0
64025;BME280;50266;57.446;26.936;2023-04-20T04:22:11;100710.64;;;4.17;100.0
64025;BME280;50266;57.446;26.936;2023-04-20T04:23:11;100701.16;;;4.16;100.0
64025;BME280;50266;57.446;26.936;2023-04-20T04:24:11;100704.8;;;4.18;100.0
64025;BME280;50266;57.446;26.936;2023-04-20T04:25:11;100710.55;;;4.21;100.0
64025;BME280;50266;57.446;26.936;2023-04-20T04:26:11;100705.41;;;4.25;100.0
64025;BME280;50266;57.446;26.936;2023-04-20T04:27:11;100702.8;;;4.3;100.0
64025;BME280;50266;57.446;26.936;2023-04-20T04:28:11;100704.22;;;4.28;100.0
64025;BME280;50266;57.446;26.936;2023-04-20T04:29:11;100708.09;;;4.34;100.0
64025;BME280;50266;57.446;26.936;2023-04-20T04:30:11;100705.37;;;4.39;100.0
64025;BME280;50266;57.446;26.936;2023-04-20T04:31:11;100707.47;;;4.41;100.0
64025;BME280;50266;57.446;26.936;2023-04-20T04:32:11;100705.78;;;4.43;100.0
64025;BME280;50266;57.446;26.936;2023-04-20T04:33:11;100704.28;;;4.44;100.0
64025;BME280;50266;57.446;26.936;2023-04-20T04:34:11;100706.83;;;4.43;100.0
64025;BME280;50266;57.446;26.936;2023-04-20T04:35:12;100705.16;;;4.52;100.0
64025;BME280;50266;57.446;26.936;2023-04-20T04:36:11;100704.76;;;4.55;100.0
64025;BME280;50266;57.446;26.936;2023-04-20T04:37:11;100708.17;;;4.58;100.0
64025;BME280;50266;57.446;26.936;2023-04-20T04:38:11;100707.19;;;4.58;100.0
64025;BME280;50266;57.446;26.936;2023-04-20T04:39:11;100703.56;;;4.68;100.0
64025;BME280;50266;57.446;26.936;2023-04-20T04:40:11;100701.58;;;4.71;100.0
64025;BME280;50266;57.446;26.936;2023-04-20T04:41:11;100703.53;;;4.7;100.0
64025;BME280;50266;57.446;26.936;2023-04-20T04:42:11;100707.3;;;4.86;100.0
64025;BME280;50266;57.446;26.936;2023-04-20T04:43:11;100705.68;;;4.8;100.0
64025;BME280;50266;57.446;26.936;2023-04-20T04:44:11;100708.87;;;4.84;100.0
64025;BME280;50266;57.446;26.936;2023-04-20T04:45:11;100706.03;;;4.91;100.0
64025;BME280;50266;57.446;26.936;2023-04-20T04:46:11;100702.48;;;4.93;100.0
64025;BME280;50266;57.446;26.936;2023-04-20T04:47:11;100706.02;;;5.0;100.0
64025;BME280;50266;57.446;26.936;2023-04-20T04:48:11;100708.38;;;4.94;100.0
64025;BME280;50266;57.446;26.936;2023-04-20T04:49:11;100704.27;;;5.04;100.0
64025;BME280;50266;57.446;26.936;2023-04-20T04:50:11;100701.97;;;5.08;100.0
64025;BME280;50266;57.446;26.936;2023-04-20T04:51:11;100702.52;;;5.04;100.0
64025;BME280;50266;57.446;26.936;2023-04-20T04:52:11;100705.66;;;5.19;100.0
64025;BME280;50266;57.446;26.936;2023-04-20T04:53:11;100702.78;;;5.18;100.0
64025;BME280;50266;57.446;26.936;2023-04-20T04:54:11;100703.25;;;5.1;100.0
64025;BME280;50266;57.446;26.936;2023-04-20T04:55:11;100699.55;;;5.18;100.0
64025;BME280;50266;57.446;26.936;2023-04-20T04:56:11;100696.97;;;5.15;100.0
64025;BME280;50266;57.446;26.936;2023-04-20T04:57:11;100702.42;;;5.27;100.0
64025;BME280;50266;57.446;26.936;2023-04-20T04:58:11;100697.62;;;5.28;100.0
64025;BME280;50266;57.446;26.936;2023-04-20T04:59:11;100703.78;;;5.21;100.0
64025;BME280;50266;57.446;26.936;2023-04-20T05:00:12;100703.73;;;5.39;100.0
64025;BME280;50266;57.446;26.936;2023-04-20T05:01:12;100706.02;;;5.51;100.0
64025;BME280;50266;57.446;26.936;2023-04-20T05:02:11;100710.95;;;5.53;100.0
64025;BME280;50266;57.446;26.936;2023-04-20T05:03:11;100705.0;;;5.6;100.0
64025;BME280;50266;57.446;26.936;2023-04-20T05:04:11;100704.39;;;5.61;100.0
64025;BME280;50266;57.446;26.936;2023-04-20T05:05:11;100704.09;;;5.73;100.0
64025;BME280;50266;57.446;26.936;2023-04-20T05:06:11;100706.09;;;5.76;100.0
64025;BME280;50266;57.446;26.936;2023-04-20T05:07:11;100707.04;;;5.69;100.0
64025;BME280;50266;57.446;26.936;2023-04-20T05:08:11;100705.91;;;5.71;100.0
64025;BME280;50266;57.446;26.936;2023-04-20T05:09:11;100705.12;;;5.75;100.0
64025;BME280;50266;57.446;26.936;2023-04-20T05:10:11;100706.09;;;5.85;100.0
64025;BME280;50266;57.446;26.936;2023-04-20T05:11:11;100702.66;;;5.82;100.0
64025;BME280;50266;57.446;26.936;2023-04-20T05:12:11;100705.58;;;5.91;100.0
64025;BME280;50266;57.446;26.936;2023-04-20T05:13:11;100702.34;;;5.99;100.0
64025;BME280;50266;57.446;26.936;2023-04-20T05:14:11;100706.02;;;5.97;100.0